Observation data for Lamesa on 05/24/2019      Previous  Date  Next       Current Mesonet Observations  Soil Data  Daily Summary Page  Observations in Plain Language
KLES 240500Z 15012KT 24/18 A2989 RMK A01 T02370184  RH  076%=      5-min Rain = 0
KLES 240505Z 15013KT 24/18 A2989 RMK A01 T02360184  RH  076%=      5-min Rain = 0
KLES 240510Z 15011KT 24/18 A2989 RMK A01 T02360184  RH  077%=      5-min Rain = 0
KLES 240515Z 15010G17KT 23/18 A299 RMK A01 T02340184  RH  077%=      5-min Rain = 0
KLES 240520Z 15010KT 23/18 A299 RMK A01 T02330184  RH  078%=      5-min Rain = 0
KLES 240525Z 15010KT 23/18 A299 RMK A01 T02330184  RH  078%=      5-min Rain = 0
KLES 240530Z 14009KT 23/18 A299 RMK A01 T02320184  RH  079%=      5-min Rain = 0
KLES 240535Z 15009G15KT 23/18 A299 RMK A01 T02310184  RH  079%=      5-min Rain = 0
KLES 240540Z 15009KT 23/18 A299 RMK A01 T02310184  RH  079%=      5-min Rain = 0
KLES 240545Z 15010KT 23/18 A299 RMK A01 T02310184  RH  079%=      5-min Rain = 0
KLES 240550Z 15010KT 23/18 A299 RMK A01 T02300184  RH  079%=      5-min Rain = 0
KLES 240555Z 15009KT 23/18 A299 RMK A01 T02300184  RH  079%=      5-min Rain = 0
KLES 240600Z 14009KT 23/18 A299 RMK A01 T02300184  RH  079%=      5-min Rain = 0
KLES 240605Z 14010KT 23/18 A299 RMK A01 T02300184  RH  080%=      5-min Rain = 0
KLES 240610Z 14009KT 23/18 A299 RMK A01 T02300184  RH  080%=      5-min Rain = 0
KLES 240615Z 15009G14KT 23/19 A299 RMK A01 T02300185  RH  080%=      5-min Rain = 0
KLES 240620Z 14009KT 23/19 A299 RMK A01 T02300185  RH  080%=      5-min Rain = 0
KLES 240625Z 14009G14KT 23/19 A2991 RMK A01 T02310186  RH  080%=      5-min Rain = 0
KLES 240630Z 14007KT 23/19 A2991 RMK A01 T02300186  RH  080%=      5-min Rain = 0
KLES 240635Z 13007KT 23/19 A2991 RMK A01 T02300186  RH  080%=      5-min Rain = 0
KLES 240640Z 13008KT 23/19 A2991 RMK A01 T02310186  RH  080%=      5-min Rain = 0
KLES 240645Z 13008KT 23/19 A2991 RMK A01 T02310186  RH  080%=      5-min Rain = 0
KLES 240650Z 13007KT 23/19 A2991 RMK A01 T02310187  RH  080%=      5-min Rain = 0
KLES 240655Z 14007KT 23/19 A2991 RMK A01 T02310187  RH  080%=      5-min Rain = 0
KLES 240700Z 14008KT 23/19 A2991 RMK A01 T02310187  RH  080%=      5-min Rain = 0
KLES 240705Z 15008KT 23/19 A2992 RMK A01 T02310187  RH  080%=      5-min Rain = 0
KLES 240710Z 16006KT 23/19 A2992 RMK A01 T02320187  RH  080%=      5-min Rain = 0
KLES 240715Z 17006KT 23/19 A2992 RMK A01 T02310188  RH  081%=      5-min Rain = 0
KLES 240720Z 16005KT 23/19 A2993 RMK A01 T02310188  RH  081%=      5-min Rain = 0
KLES 240725Z 16007KT 23/19 A2992 RMK A01 T02310188  RH  081%=      5-min Rain = 0
KLES 240730Z 16005KT 23/19 A2992 RMK A01 T02310188  RH  081%=      5-min Rain = 0
KLES 240735Z 15005KT 23/19 A2992 RMK A01 T02310188  RH  081%=      5-min Rain = 0
KLES 240740Z 14004KT 23/19 A2992 RMK A01 T02300188  RH  082%=      5-min Rain = 0
KLES 240745Z 13004KT 23/19 A2992 RMK A01 T02300189  RH  082%=      5-min Rain = 0
KLES 240750Z 14005KT 23/19 A2992 RMK A01 T02290189  RH  082%=      5-min Rain = 0
KLES 240755Z 15004KT 23/19 A2992 RMK A01 T02300189  RH  082%=      5-min Rain = 0
KLES 240800Z 14004KT 23/19 A2992 RMK A01 T02290189  RH  082%=      5-min Rain = 0
KLES 240805Z 14005KT 23/19 A2992 RMK A01 T02290189  RH  082%=      5-min Rain = 0
KLES 240810Z 15005KT 23/19 A2992 RMK A01 T02290189  RH  082%=      5-min Rain = 0
KLES 240815Z 14004KT 23/19 A2992 RMK A01 T02290189  RH  083%=      5-min Rain = 0
KLES 240820Z 14004KT 23/19 A2992 RMK A01 T02290189  RH  083%=      5-min Rain = 0
KLES 240825Z 14004KT 23/19 A2993 RMK A01 T02280189  RH  083%=      5-min Rain = 0
KLES 240830Z 13004KT 23/19 A2993 RMK A01 T02280190  RH  083%=      5-min Rain = 0
KLES 240835Z 13003KT 23/19 A2993 RMK A01 T02280190  RH  084%=      5-min Rain = 0
KLES 240840Z 11002KT 23/19 A2993 RMK A01 T02280190  RH  084%=      5-min Rain = 0
KLES 240845Z 11003KT 23/19 A2993 RMK A01 T02270191  RH  084%=      5-min Rain = 0
KLES 240850Z 12002KT 23/19 A2993 RMK A01 T02260192  RH  085%=      5-min Rain = 0
KLES 240855Z 10003KT 23/19 A2993 RMK A01 T02250193  RH  087%=      5-min Rain = 0
KLES 240900Z 08002KT 22/19 A2993 RMK A01 T02230193  RH  088%=      5-min Rain = 0
KLES 240905Z 06003KT 22/19 A2993 RMK A01 T02220193  RH  089%=      5-min Rain = 0
KLES 240910Z 02006G13KT 21/18 A2993 RMK A01 T02110177  RH  086%=      5-min Rain = 0.01
KLES 240915Z 02006KT 20/17 A2993 RMK A01 T01960169  RH  089%=      5-min Rain = 0
KLES 240920Z 04005KT 19/17 A2993 RMK A01 T01900167  RH  091%=      5-min Rain = 0
KLES 240925Z 05004KT 19/17 A2993 RMK A01 T01890169  RH  093%=      5-min Rain = 0
KLES 240930Z 04004KT 19/17 A2993 RMK A01 T01890170  RH  093%=      5-min Rain = 0
KLES 240935Z 03003KT 19/17 A2994 RMK A01 T01880170  RH  094%=      5-min Rain = 0
KLES 240940Z 04004KT 19/17 A2994 RMK A01 T01870169  RH  094%=      5-min Rain = 0
KLES 240945Z 04003KT 19/17 A2994 RMK A01 T01860168  RH  094%=      5-min Rain = 0.01
KLES 240950Z 05004KT 19/17 A2994 RMK A01 T01850168  RH  094%=      5-min Rain = 0
KLES 240955Z 06005KT 18/17 A2993 RMK A01 T01840167  RH  095%=      5-min Rain = 0
KLES 241000Z 07005KT 18/17 A2993 RMK A01 T01820167  RH  095%=      5-min Rain = 0
KLES 241005Z 08005KT 18/17 A2993 RMK A01 T01820167  RH  096%=      5-min Rain = 0
KLES 241010Z 09004KT 18/17 A2993 RMK A01 T01820168  RH  096%=      5-min Rain = 0
KLES 241015Z 07004KT 18/17 A2993 RMK A01 T01820168  RH  096%=      5-min Rain = 0
KLES 241020Z 06003KT 18/17 A2993 RMK A01 T01830169  RH  096%=      5-min Rain = 0
KLES 241025Z 04003KT 18/17 A2993 RMK A01 T01840170  RH  096%=      5-min Rain = 0
KLES 241030Z 03003KT 19/17 A2993 RMK A01 T01850171  RH  097%=      5-min Rain = 0
KLES 241035Z 04003KT 19/17 A2993 RMK A01 T01860172  RH  097%=      5-min Rain = 0
KLES 241040Z 04004KT 19/17 A2993 RMK A01 T01860173  RH  097%=      5-min Rain = 0
KLES 241045Z 04003KT 19/17 A2993 RMK A01 T01870174  RH  097%=      5-min Rain = 0
KLES 241050Z 03004KT 19/18 A2994 RMK A01 T01880175  RH  097%=      5-min Rain = 0
KLES 241055Z 04003KT 19/18 A2994 RMK A01 T01890176  RH  097%=      5-min Rain = 0
KLES 241100Z 06004KT 19/18 A2994 RMK A01 T01910178  RH  097%=      5-min Rain = 0
KLES 241105Z 05004KT 19/18 A2994 RMK A01 T01910178  RH  097%=      5-min Rain = 0
KLES 241110Z 05005KT 19/18 A2994 RMK A01 T01900177  RH  097%=      5-min Rain = 0
KLES 241115Z 05006KT 19/18 A2994 RMK A01 T01900176  RH  097%=      5-min Rain = 0
KLES 241120Z 06006KT 19/18 A2994 RMK A01 T01910178  RH  097%=      5-min Rain = 0
KLES 241125Z 06006KT 19/18 A2994 RMK A01 T01910178  RH  097%=      5-min Rain = 0
KLES 241130Z 06006KT 19/18 A2993 RMK A01 T01910177  RH  097%=      5-min Rain = 0
KLES 241135Z 06005KT 19/18 A2993 RMK A01 T01900176  RH  097%=      5-min Rain = 0
KLES 241140Z 06006KT 19/18 A2994 RMK A01 T01890176  RH  097%=      5-min Rain = 0
KLES 241145Z 07005KT 19/18 A2994 RMK A01 T01890176  RH  097%=      5-min Rain = 0
KLES 241150Z 07004KT 19/18 A2994 RMK A01 T01890176  RH  097%=      5-min Rain = 0
KLES 241155Z 06004KT 19/18 A2994 RMK A01 T01890177  RH  097%=      5-min Rain = 0
KLES 241200Z 07003KT 19/18 A2994 RMK A01 T01900178  RH  097%=      5-min Rain = 0
KLES 241205Z 07005KT 19/18 A2994 RMK A01 T01920179  RH  097%=      5-min Rain = 0
KLES 241210Z 06006KT 19/18 A2994 RMK A01 T01930180  RH  097%=      5-min Rain = 0
KLES 241215Z 07006KT 19/18 A2994 RMK A01 T01940182  RH  098%=      5-min Rain = 0
KLES 241220Z 08005KT 20/18 A2994 RMK A01 T01970184  RH  098%=      5-min Rain = 0
KLES 241225Z 08006KT 20/19 A2994 RMK A01 T02000187  RH  098%=      5-min Rain = 0
KLES 241230Z 08006KT 20/19 A2994 RMK A01 T02010188  RH  097%=      5-min Rain = 0
KLES 241235Z 10007KT 20/19 A2995 RMK A01 T02030190  RH  097%=      5-min Rain = 0
KLES 241240Z 11007KT 20/19 A2995 RMK A01 T02030190  RH  097%=      5-min Rain = 0
KLES 241245Z 10006KT 20/19 A2995 RMK A01 T02040190  RH  097%=      5-min Rain = 0
KLES 241250Z 10006KT 20/19 A2995 RMK A01 T02040190  RH  097%=      5-min Rain = 0
KLES 241255Z 10005KT 20/19 A2995 RMK A01 T02030189  RH  097%=      5-min Rain = 0
KLES 241300Z 10006KT 20/19 A2995 RMK A01 T02030189  RH  097%=      5-min Rain = 0
KLES 241305Z 10006KT 20/19 A2995 RMK A01 T02040191  RH  097%=      5-min Rain = 0
KLES 241310Z 11006KT 21/19 A2995 RMK A01 T02050191  RH  097%=      5-min Rain = 0
KLES 241315Z 10006KT 21/19 A2995 RMK A01 T02050192  RH  097%=      5-min Rain = 0
KLES 241320Z 10006KT 21/19 A2995 RMK A01 T02070194  RH  097%=      5-min Rain = 0
KLES 241325Z 11005KT 21/20 A2995 RMK A01 T02100196  RH  097%=      5-min Rain = 0
KLES 241330Z 12006KT 21/20 A2996 RMK A01 T02120198  RH  097%=      5-min Rain = 0
KLES 241335Z 13009KT 22/20 A2996 RMK A01 T02160201  RH  097%=      5-min Rain = 0
KLES 241340Z 14010KT 22/20 A2996 RMK A01 T02180202  RH  096%=      5-min Rain = 0
KLES 241345Z 14011KT 22/20 A2996 RMK A01 T02220204  RH  095%=      5-min Rain = 0
KLES 241350Z 15010G17KT 23/21 A2995 RMK A01 T02250205  RH  094%=      5-min Rain = 0
KLES 241355Z 15012KT 23/20 A2995 RMK A01 T02270204  RH  092%=      5-min Rain = 0
KLES 241400Z 15011KT 23/21 A2995 RMK A01 T02300205  RH  091%=      5-min Rain = 0
KLES 241405Z 15011G17KT 23/20 A2995 RMK A01 T02320204  RH  090%=      5-min Rain = 0
KLES 241410Z 15013KT 23/20 A2995 RMK A01 T02340204  RH  088%=      5-min Rain = 0
KLES 241415Z 15013KT 24/20 A2995 RMK A01 T02350203  RH  087%=      5-min Rain = 0
KLES 241420Z 16013KT 24/20 A2996 RMK A01 T02370204  RH  087%=      5-min Rain = 0
KLES 241425Z 16013G18KT 24/20 A2996 RMK A01 T02380204  RH  086%=      5-min Rain = 0
KLES 241430Z 16015KT 24/20 A2996 RMK A01 T02400204  RH  085%=      5-min Rain = 0
KLES 241435Z 16015G21KT 24/20 A2996 RMK A01 T02420203  RH  084%=      5-min Rain = 0
KLES 241440Z 17014KT 25/20 A2996 RMK A01 T02450204  RH  083%=      5-min Rain = 0
KLES 241445Z 17014G21KT 25/20 A2996 RMK A01 T02480204  RH  081%=      5-min Rain = 0
KLES 241450Z 18016G22KT 25/20 A2996 RMK A01 T02490203  RH  080%=      5-min Rain = 0
KLES 241455Z 17014G20KT 25/20 A2996 RMK A01 T02500203  RH  080%=      5-min Rain = 0
KLES 241500Z 16015G20KT 25/20 A2996 RMK A01 T02530203  RH  078%=      5-min Rain = 0
KLES 241505Z 17016G23KT 25/20 A2996 RMK A01 T02540202  RH  077%=      5-min Rain = 0
KLES 241510Z 17014G20KT 26/20 A2996 RMK A01 T02550202  RH  077%=      5-min Rain = 0
KLES 241515Z 17016G24KT 26/20 A2996 RMK A01 T02550200  RH  076%=      5-min Rain = 0
KLES 241520Z 18016G21KT 25/20 A2996 RMK A01 T02520201  RH  078%=      5-min Rain = 0
KLES 241525Z 17014G19KT 25/20 A2996 RMK A01 T02530200  RH  077%=      5-min Rain = 0
KLES 241530Z 18016KT 25/20 A2996 RMK A01 T02540200  RH  076%=      5-min Rain = 0
KLES 241535Z 17016G22KT 26/20 A2996 RMK A01 T02590200  RH  074%=      5-min Rain = 0
KLES 241540Z 17014KT 26/20 A2996 RMK A01 T02630203  RH  073%=      5-min Rain = 0
KLES 241545Z 16015KT 26/20 A2996 RMK A01 T02640202  RH  073%=      5-min Rain = 0
KLES 241550Z 17013G18KT 26/20 A2996 RMK A01 T02640202  RH  073%=      5-min Rain = 0
KLES 241555Z 16014G19KT 26/20 A2996 RMK A01 T02640203  RH  073%=      5-min Rain = 0
KLES 241600Z 17015G20KT 26/20 A2996 RMK A01 T02640201  RH  072%=      5-min Rain = 0
KLES 241605Z 16013KT 26/20 A2996 RMK A01 T02640201  RH  072%=      5-min Rain = 0
KLES 241610Z 16015G21KT 27/20 A2996 RMK A01 T02670204  RH  072%=      5-min Rain = 0
KLES 241615Z 16014G21KT 27/20 A2996 RMK A01 T02670203  RH  072%=      5-min Rain = 0
KLES 241620Z 16015G20KT 27/20 A2996 RMK A01 T02690202  RH  071%=      5-min Rain = 0
KLES 241625Z 18014G19KT 27/20 A2996 RMK A01 T02710203  RH  071%=      5-min Rain = 0
KLES 241630Z 18013G18KT 27/20 A2996 RMK A01 T02690198  RH  069%=      5-min Rain = 0
KLES 241635Z 18015G20KT 27/20 A2996 RMK A01 T02650197  RH  071%=      5-min Rain = 0
KLES 241640Z 18015KT 26/20 A2997 RMK A01 T02610196  RH  072%=      5-min Rain = 0
KLES 241645Z 19013KT 26/20 A2996 RMK A01 T02640199  RH  072%=      5-min Rain = 0
KLES 241650Z 18012G18KT 27/20 A2996 RMK A01 T02690198  RH  069%=      5-min Rain = 0
KLES 241655Z 18013KT 27/20 A2996 RMK A01 T02690198  RH  069%=      5-min Rain = 0
KLES 241700Z 18012G18KT 28/20 A2996 RMK A01 T02760201  RH  067%=      5-min Rain = 0
KLES 241705Z 18014G20KT 28/20 A2996 RMK A01 T02770199  RH  066%=      5-min Rain = 0
KLES 241710Z 18012G17KT 28/20 A2996 RMK A01 T02780200  RH  066%=      5-min Rain = 0
KLES 241715Z 18012KT 28/20 A2996 RMK A01 T02780199  RH  066%=      5-min Rain = 0
KLES 241720Z 18014KT 28/20 A2996 RMK A01 T02780199  RH  066%=      5-min Rain = 0
KLES 241725Z 17013G18KT 28/20 A2996 RMK A01 T02820200  RH  065%=      5-min Rain = 0
KLES 241730Z 17012G18KT 29/20 A2996 RMK A01 T02850202  RH  064%=      5-min Rain = 0
KLES 241735Z 16014G20KT 29/20 A2996 RMK A01 T02860201  RH  064%=      5-min Rain = 0
KLES 241740Z 18015G21KT 29/20 A2996 RMK A01 T02870200  RH  063%=      5-min Rain = 0
KLES 241745Z 19013G20KT 28/20 A2996 RMK A01 T02840198  RH  063%=      5-min Rain = 0
KLES 241750Z 18015G21KT 29/20 A2995 RMK A01 T02880197  RH  061%=      5-min Rain = 0
KLES 241755Z 18013G20KT 29/20 A2995 RMK A01 T02890198  RH  061%=      5-min Rain = 0
KLES 241800Z 19013G18KT 29/20 A2995 RMK A01 T02930198  RH  060%=      5-min Rain = 0
KLES 241805Z 16015KT 29/19 A2995 RMK A01 T02890194  RH  060%=      5-min Rain = 0
KLES 241810Z 17015G20KT 28/19 A2995 RMK A01 T02840191  RH  060%=      5-min Rain = 0
KLES 241815Z 16012G17KT 28/20 A2995 RMK A01 T02780196  RH  064%=      5-min Rain = 0
KLES 241820Z 15012G17KT 28/20 A2994 RMK A01 T02820199  RH  064%=      5-min Rain = 0
KLES 241825Z 17011KT 28/20 A2994 RMK A01 T02810196  RH  063%=      5-min Rain = 0
KLES 241830Z 17014KT 28/20 A2994 RMK A01 T02780196  RH  065%=      5-min Rain = 0
KLES 241835Z 17013G20KT 28/20 A2994 RMK A01 T02760196  RH  066%=      5-min Rain = 0
KLES 241840Z 19013G20KT 28/20 A2994 RMK A01 T02770196  RH  065%=      5-min Rain = 0
KLES 241845Z 18016G21KT 28/20 A2993 RMK A01 T02810197  RH  064%=      5-min Rain = 0
KLES 241850Z 19016G25KT 28/20 A2993 RMK A01 T02820195  RH  063%=      5-min Rain = 0
KLES 241855Z 19016G22KT 29/19 A2993 RMK A01 T02870194  RH  060%=      5-min Rain = 0
KLES 241900Z 19017G24KT 29/19 A2993 RMK A01 T02860192  RH  060%=      5-min Rain = 0
KLES 241905Z 18016G21KT 29/20 A2992 RMK A01 T02900195  RH  060%=      5-min Rain = 0
KLES 241910Z 18015G25KT 29/20 A2992 RMK A01 T02930195  RH  059%=      5-min Rain = 0
KLES 241915Z 18017G25KT 29/19 A2992 RMK A01 T02930193  RH  058%=      5-min Rain = 0
KLES 241920Z 16017G22KT 30/20 A2992 RMK A01 T02950196  RH  059%=      5-min Rain = 0
KLES 241925Z 18018G26KT 30/19 A2992 RMK A01 T02970193  RH  057%=      5-min Rain = 0
KLES 241930Z 18017G23KT 29/19 A2992 RMK A01 T02910194  RH  059%=      5-min Rain = 0
KLES 241935Z 17019G25KT 29/19 A2992 RMK A01 T02890194  RH  060%=      5-min Rain = 0
KLES 241940Z 16018G24KT 29/19 A2992 RMK A01 T02900193  RH  059%=      5-min Rain = 0
KLES 241945Z 18019G26KT 29/19 A2992 RMK A01 T02880190  RH  059%=      5-min Rain = 0
KLES 241950Z 17019G24KT 29/19 A2991 RMK A01 T02910192  RH  058%=      5-min Rain = 0
KLES 241955Z 18018G25KT 30/19 A2991 RMK A01 T02960191  RH  056%=      5-min Rain = 0
KLES 242000Z 17019G24KT 30/19 A2991 RMK A01 T02970193  RH  056%=      5-min Rain = 0
KLES 242005Z 18019G25KT 30/19 A2992 RMK A01 T02950192  RH  057%=      5-min Rain = 0
KLES 242010Z 18019G25KT 30/19 A2991 RMK A01 T02950190  RH  056%=      5-min Rain = 0
KLES 242015Z 17018G25KT 30/19 A2991 RMK A01 T02980190  RH  055%=      5-min Rain = 0
KLES 242020Z 17018G25KT 30/19 A2991 RMK A01 T02990191  RH  055%=      5-min Rain = 0
KLES 242025Z 17016G24KT 30/19 A299 RMK A01 T03010191  RH  055%=      5-min Rain = 0
KLES 242030Z 17019G26KT 30/19 A299 RMK A01 T02990192  RH  056%=      5-min Rain = 0
KLES 242035Z 16020G26KT 30/19 A299 RMK A01 T02970193  RH  057%=      5-min Rain = 0
KLES 242040Z 17019KT 29/19 A299 RMK A01 T02930193  RH  058%=      5-min Rain = 0
KLES 242045Z 16020G27KT 29/19 A299 RMK A01 T02910190  RH  058%=      5-min Rain = 0
KLES 242050Z 17019G26KT 29/19 A299 RMK A01 T02900191  RH  059%=      5-min Rain = 0
KLES 242055Z 16020G28KT 29/19 A299 RMK A01 T02880193  RH  060%=      5-min Rain = 0
KLES 242100Z 16020G29KT 29/20 A299 RMK A01 T02900196  RH  060%=      5-min Rain = 0
KLES 242105Z 16020G27KT 29/20 A299 RMK A01 T02880197  RH  061%=      5-min Rain = 0
KLES 242110Z 16021G29KT 29/20 A299 RMK A01 T02860197  RH  062%=      5-min Rain = 0
KLES 242115Z 16023G29KT 29/20 A2989 RMK A01 T02850197  RH  062%=      5-min Rain = 0
KLES 242120Z 15021G27KT 29/20 A2989 RMK A01 T02860197  RH  062%=      5-min Rain = 0
KLES 242125Z 18022G28KT 29/20 A2989 RMK A01 T02860197  RH  062%=      5-min Rain = 0
KLES 242130Z 16021G27KT 29/20 A2988 RMK A01 T02850196  RH  062%=      5-min Rain = 0
KLES 242135Z 15021G29KT 28/20 A2988 RMK A01 T02830196  RH  063%=      5-min Rain = 0
KLES 242140Z 16020G29KT 29/20 A2988 RMK A01 T02860197  RH  062%=      5-min Rain = 0
KLES 242145Z 16022G28KT 29/19 A2988 RMK A01 T02880194  RH  060%=      5-min Rain = 0
KLES 242150Z 17021G28KT 29/20 A2988 RMK A01 T02900195  RH  060%=      5-min Rain = 0
KLES 242155Z 16022G31KT 29/20 A2988 RMK A01 T02850195  RH  062%=      5-min Rain = 0
KLES 242200Z 16022G31KT 28/19 A2988 RMK A01 T02800194  RH  063%=      5-min Rain = 0
KLES 242205Z 17022G27KT 28/19 A2988 RMK A01 T02810194  RH  063%=      5-min Rain = 0
KLES 242210Z 16019G26KT 28/20 A2988 RMK A01 T02830196  RH  063%=      5-min Rain = 0
KLES 242215Z 17022G29KT 28/19 A2988 RMK A01 T02830194  RH  062%=      5-min Rain = 0
KLES 242220Z 16021G27KT 28/19 A2988 RMK A01 T02800194  RH  063%=      5-min Rain = 0
KLES 242225Z 16020G27KT 28/19 A2988 RMK A01 T02790194  RH  063%=      5-min Rain = 0
KLES 242230Z 16019G26KT 28/20 A2988 RMK A01 T02810195  RH  063%=      5-min Rain = 0
KLES 242235Z 16020G26KT 28/19 A2987 RMK A01 T02820194  RH  062%=      5-min Rain = 0
KLES 242240Z 16020G26KT 28/19 A2987 RMK A01 T02790194  RH  064%=      5-min Rain = 0
KLES 242245Z 16020G26KT 28/20 A2987 RMK A01 T02770195  RH  064%=      5-min Rain = 0
KLES 242250Z 16020G27KT 28/19 A2987 RMK A01 T02770194  RH  064%=      5-min Rain = 0
KLES 242255Z 16019G27KT 27/19 A2987 RMK A01 T02730194  RH  066%=      5-min Rain = 0
KLES 242300Z 15020G28KT 27/19 A2988 RMK A01 T02700194  RH  067%=      5-min Rain = 0
KLES 242305Z 15022G28KT 27/19 A2988 RMK A01 T02700194  RH  067%=      5-min Rain = 0
KLES 242310Z 15021G29KT 27/20 A2988 RMK A01 T02710195  RH  067%=      5-min Rain = 0
KLES 242315Z 16021G28KT 27/19 A2989 RMK A01 T02690193  RH  067%=      5-min Rain = 0
KLES 242320Z 16020G26KT 27/19 A2989 RMK A01 T02690193  RH  067%=      5-min Rain = 0
KLES 242325Z 15021G29KT 27/19 A2988 RMK A01 T02670193  RH  067%=      5-min Rain = 0
KLES 242330Z 16021G27KT 26/19 A2988 RMK A01 T02620191  RH  069%=      5-min Rain = 0
KLES 242335Z 16022G27KT 26/19 A2988 RMK A01 T02630190  RH  068%=      5-min Rain = 0
KLES 242340Z 17020G27KT 26/19 A2988 RMK A01 T02640190  RH  068%=      5-min Rain = 0
KLES 242345Z 16020G28KT 27/19 A2988 RMK A01 T02650189  RH  067%=      5-min Rain = 0
KLES 242350Z 16023G29KT 26/19 A2988 RMK A01 T02630186  RH  066%=      5-min Rain = 0
KLES 242355Z 16020G27KT 26/19 A2988 RMK A01 T02640186  RH  066%=      5-min Rain = 0
KLES 250000Z 16023G29KT 26/18 A2988 RMK A01 T02640183  RH  064%=      5-min Rain = 0
KLES 250005Z 16022G30KT 26/18 A2987 RMK A01 T02640183  RH  064%=      5-min Rain = 0
KLES 250010Z 16020G29KT 26/18 A2987 RMK A01 T02630183  RH  064%=      5-min Rain = 0
KLES 250015Z 16023G30KT 26/18 A2988 RMK A01 T02620181  RH  064%=      5-min Rain = 0
KLES 250020Z 16020G30KT 26/18 A2988 RMK A01 T02630181  RH  064%=      5-min Rain = 0
KLES 250025Z 16023G32KT 26/18 A2988 RMK A01 T02620180  RH  064%=      5-min Rain = 0
KLES 250030Z 16021G30KT 26/18 A2988 RMK A01 T02610181  RH  064%=      5-min Rain = 0
KLES 250035Z 16021G30KT 26/18 A2987 RMK A01 T02590180  RH  065%=      5-min Rain = 0
KLES 250040Z 16020G27KT 26/18 A2988 RMK A01 T02590180  RH  065%=      5-min Rain = 0
KLES 250045Z 16020G25KT 26/18 A2988 RMK A01 T02570181  RH  066%=      5-min Rain = 0
KLES 250050Z 15019G24KT 26/18 A2988 RMK A01 T02560181  RH  067%=      5-min Rain = 0
KLES 250055Z 16018G25KT 26/18 A2988 RMK A01 T02550181  RH  067%=      5-min Rain = 0
KLES 250100Z 16018G25KT 25/18 A2988 RMK A01 T02530180  RH  067%=      5-min Rain = 0
KLES 250105Z 16017G24KT 25/18 A2988 RMK A01 T02530179  RH  067%=      5-min Rain = 0
KLES 250110Z 16020G27KT 25/18 A2987 RMK A01 T02520179  RH  067%=      5-min Rain = 0
KLES 250115Z 16019G25KT 25/18 A2988 RMK A01 T02520178  RH  067%=      5-min Rain = 0
KLES 250120Z 16017G22KT 25/18 A2988 RMK A01 T02500179  RH  068%=      5-min Rain = 0
KLES 250125Z 16018KT 25/18 A2988 RMK A01 T02490179  RH  068%=      5-min Rain = 0
KLES 250130Z 16017G22KT 25/18 A2988 RMK A01 T02480179  RH  069%=      5-min Rain = 0
KLES 250135Z 17017G22KT 25/18 A2988 RMK A01 T02470179  RH  069%=      5-min Rain = 0
KLES 250140Z 17017G22KT 25/18 A2989 RMK A01 T02460178  RH  069%=      5-min Rain = 0
KLES 250145Z 17016KT 25/18 A2989 RMK A01 T02450177  RH  069%=      5-min Rain = 0
KLES 250150Z 17014G20KT 24/18 A2989 RMK A01 T02440176  RH  070%=      5-min Rain = 0
KLES 250155Z 17015KT 24/18 A2988 RMK A01 T02420176  RH  070%=      5-min Rain = 0
KLES 250200Z 17016KT 24/18 A2988 RMK A01 T02410176  RH  070%=      5-min Rain = 0
KLES 250205Z 17014G19KT 24/18 A2988 RMK A01 T02400176  RH  071%=      5-min Rain = 0
KLES 250210Z 18014KT 24/18 A2988 RMK A01 T02380175  RH  072%=      5-min Rain = 0
KLES 250215Z 18014G19KT 24/18 A2989 RMK A01 T02370175  RH  072%=      5-min Rain = 0
KLES 250220Z 18014G19KT 24/18 A299 RMK A01 T02360175  RH  072%=      5-min Rain = 0
KLES 250225Z 18013G19KT 24/18 A299 RMK A01 T02360175  RH  073%=      5-min Rain = 0
KLES 250230Z 18014G19KT 24/18 A299 RMK A01 T02350175  RH  073%=      5-min Rain = 0
KLES 250235Z 18013G19KT 24/18 A299 RMK A01 T02350175  RH  073%=      5-min Rain = 0
KLES 250240Z 18013KT 24/18 A2991 RMK A01 T02350175  RH  073%=      5-min Rain = 0
KLES 250245Z 18013G18KT 23/18 A2991 RMK A01 T02340175  RH  073%=      5-min Rain = 0
KLES 250250Z 18015KT 23/18 A2992 RMK A01 T02340175  RH  073%=      5-min Rain = 0
KLES 250255Z 17013KT 23/18 A2992 RMK A01 T02340175  RH  073%=      5-min Rain = 0
KLES 250300Z 17013KT 23/18 A2992 RMK A01 T02320175  RH  074%=      5-min Rain = 0
KLES 250305Z 18014KT 23/18 A2993 RMK A01 T02320176  RH  074%=      5-min Rain = 0
KLES 250310Z 18014G20KT 23/18 A2993 RMK A01 T02310176  RH  075%=      5-min Rain = 0
KLES 250315Z 18013KT 23/18 A2994 RMK A01 T02310176  RH  075%=      5-min Rain = 0
KLES 250320Z 17013G19KT 23/18 A2994 RMK A01 T02310176  RH  075%=      5-min Rain = 0
KLES 250325Z 17014KT 23/18 A2994 RMK A01 T02310177  RH  075%=      5-min Rain = 0
KLES 250330Z 17014KT 23/18 A2995 RMK A01 T02310177  RH  075%=      5-min Rain = 0
KLES 250335Z 17014G19KT 23/18 A2995 RMK A01 T02310177  RH  075%=      5-min Rain = 0
KLES 250340Z 16014KT 23/18 A2995 RMK A01 T02320177  RH  075%=      5-min Rain = 0
KLES 250345Z 16012KT 23/18 A2995 RMK A01 T02320177  RH  075%=      5-min Rain = 0
KLES 250350Z 16012KT 23/18 A2995 RMK A01 T02300177  RH  076%=      5-min Rain = 0
KLES 250355Z 15010G15KT 23/18 A2995 RMK A01 T02290177  RH  076%=      5-min Rain = 0
KLES 250400Z 15009KT 23/18 A2995 RMK A01 T02280178  RH  077%=      5-min Rain = 0
KLES 250405Z 14009KT 23/18 A2995 RMK A01 T02260178  RH  078%=      5-min Rain = 0
KLES 250410Z 14008KT 23/18 A2995 RMK A01 T02250178  RH  079%=      5-min Rain = 0
KLES 250415Z 15008KT 22/18 A2995 RMK A01 T02240178  RH  079%=      5-min Rain = 0
KLES 250420Z 15008KT 22/18 A2995 RMK A01 T02230178  RH  079%=      5-min Rain = 0
KLES 250425Z 15008KT 22/18 A2995 RMK A01 T02220178  RH  080%=      5-min Rain = 0
KLES 250430Z 15008KT 22/18 A2996 RMK A01 T02210178  RH  080%=      5-min Rain = 0
KLES 250435Z 15008KT 22/18 A2996 RMK A01 T02210178  RH  080%=      5-min Rain = 0
KLES 250440Z 15008KT 22/18 A2996 RMK A01 T02210178  RH  080%=      5-min Rain = 0
KLES 250445Z 14007KT 22/18 A2996 RMK A01 T02210177  RH  080%=      5-min Rain = 0
KLES 250450Z 14007KT 22/18 A2996 RMK A01 T02200177  RH  081%=      5-min Rain = 0
KLES 250455Z 13007KT 22/18 A2996 RMK A01 T02190177  RH  081%=      5-min Rain = 0

Page generated in 0.0099 seconds.